sensor_id;sensor_type;location;lat;lon;timestamp;P1;durP1;ratioP1;P2;durP2;ratioP2
6259;SDS011;3163;51.516;4.000;2023-07-24T00:02:02;0.73;;;0.70;;
6259;SDS011;3163;51.516;4.000;2023-07-24T00:04:30;0.90;;;0.90;;
6259;SDS011;3163;51.516;4.000;2023-07-24T00:06:56;1.10;;;1.00;;
6259;SDS011;3163;51.516;4.000;2023-07-24T00:09:22;0.68;;;0.68;;
6259;SDS011;3163;51.516;4.000;2023-07-24T00:11:48;0.80;;;0.80;;
6259;SDS011;3163;51.516;4.000;2023-07-24T00:14:14;0.80;;;0.80;;
6259;SDS011;3163;51.516;4.000;2023-07-24T00:16:41;0.63;;;0.63;;
6259;SDS011;3163;51.516;4.000;2023-07-24T00:19:06;0.95;;;0.95;;
6259;SDS011;3163;51.516;4.000;2023-07-24T00:21:32;0.93;;;0.93;;
6259;SDS011;3163;51.516;4.000;2023-07-24T00:23:58;1.00;;;0.80;;
6259;SDS011;3163;51.516;4.000;2023-07-24T00:26:23;0.83;;;0.83;;
6259;SDS011;3163;51.516;4.000;2023-07-24T00:28:49;0.70;;;0.70;;
6259;SDS011;3163;51.516;4.000;2023-07-24T00:31:15;1.20;;;1.00;;
6259;SDS011;3163;51.516;4.000;2023-07-24T00:33:40;0.90;;;0.90;;
6259;SDS011;3163;51.516;4.000;2023-07-24T00:36:06;0.55;;;0.55;;
6259;SDS011;3163;51.516;4.000;2023-07-24T00:38:32;0.68;;;0.68;;
6259;SDS011;3163;51.516;4.000;2023-07-24T00:40:58;0.73;;;0.73;;
6259;SDS011;3163;51.516;4.000;2023-07-24T00:43:23;1.23;;;0.73;;
6259;SDS011;3163;51.516;4.000;2023-07-24T00:45:49;0.70;;;0.70;;
6259;SDS011;3163;51.516;4.000;2023-07-24T00:48:15;3.37;;;1.00;;
6259;SDS011;3163;51.516;4.000;2023-07-24T00:50:42;0.97;;;0.80;;
6259;SDS011;3163;51.516;4.000;2023-07-24T00:53:09;0.97;;;0.97;;
6259;SDS011;3163;51.516;4.000;2023-07-24T00:55:36;4.03;;;0.95;;
6259;SDS011;3163;51.516;4.000;2023-07-24T00:58:02;0.90;;;0.80;;
6259;SDS011;3163;51.516;4.000;2023-07-24T01:00:28;0.70;;;0.70;;
6259;SDS011;3163;51.516;4.000;2023-07-24T01:02:54;2.20;;;0.70;;
6259;SDS011;3163;51.516;4.000;2023-07-24T01:05:21;0.63;;;0.63;;
6259;SDS011;3163;51.516;4.000;2023-07-24T01:07:49;0.70;;;0.70;;
6259;SDS011;3163;51.516;4.000;2023-07-24T01:10:16;0.60;;;0.60;;
6259;SDS011;3163;51.516;4.000;2023-07-24T01:17:57;0.70;;;0.70;;
6259;SDS011;3163;51.516;4.000;2023-07-24T01:20:26;0.80;;;0.70;;
6259;SDS011;3163;51.516;4.000;2023-07-24T01:25:32;0.77;;;0.77;;
6259;SDS011;3163;51.516;4.000;2023-07-24T01:28:06;1.23;;;1.17;;
6259;SDS011;3163;51.516;4.000;2023-07-24T01:30:32;0.88;;;0.80;;
6259;SDS011;3163;51.516;4.000;2023-07-24T01:32:58;0.80;;;0.80;;
6259;SDS011;3163;51.516;4.000;2023-07-24T01:35:23;3.07;;;0.90;;
6259;SDS011;3163;51.516;4.000;2023-07-24T01:37:52;0.90;;;0.90;;
6259;SDS011;3163;51.516;4.000;2023-07-24T01:40:21;0.93;;;0.83;;
6259;SDS011;3163;51.516;4.000;2023-07-24T01:42:48;0.60;;;0.60;;
6259;SDS011;3163;51.516;4.000;2023-07-24T01:45:15;0.67;;;0.60;;
6259;SDS011;3163;51.516;4.000;2023-07-24T01:47:40;1.50;;;0.90;;
6259;SDS011;3163;51.516;4.000;2023-07-24T01:50:06;1.33;;;0.80;;
6259;SDS011;3163;51.516;4.000;2023-07-24T01:52:32;0.70;;;0.70;;
6259;SDS011;3163;51.516;4.000;2023-07-24T01:54:58;0.70;;;0.60;;
6259;SDS011;3163;51.516;4.000;2023-07-24T01:57:24;0.98;;;0.90;;
6259;SDS011;3163;51.516;4.000;2023-07-24T01:59:49;2.83;;;0.90;;
6259;SDS011;3163;51.516;4.000;2023-07-24T02:02:15;0.70;;;0.70;;
6259;SDS011;3163;51.516;4.000;2023-07-24T02:04:40;0.60;;;0.60;;
6259;SDS011;3163;51.516;4.000;2023-07-24T02:07:06;0.80;;;0.80;;
6259;SDS011;3163;51.516;4.000;2023-07-24T02:09:32;0.70;;;0.70;;
6259;SDS011;3163;51.516;4.000;2023-07-24T02:11:57;1.00;;;1.00;;
6259;SDS011;3163;51.516;4.000;2023-07-24T02:14:23;0.40;;;0.40;;
6259;SDS011;3163;51.516;4.000;2023-07-24T02:16:49;0.93;;;0.87;;
6259;SDS011;3163;51.516;4.000;2023-07-24T02:19:15;0.73;;;0.73;;
6259;SDS011;3163;51.516;4.000;2023-07-24T02:21:41;1.07;;;0.90;;
6259;SDS011;3163;51.516;4.000;2023-07-24T02:24:06;0.97;;;0.97;;
6259;SDS011;3163;51.516;4.000;2023-07-24T02:26:32;0.90;;;0.83;;
6259;SDS011;3163;51.516;4.000;2023-07-24T02:28:58;2.13;;;1.00;;
6259;SDS011;3163;51.516;4.000;2023-07-24T02:31:23;1.47;;;1.10;;
6259;SDS011;3163;51.516;4.000;2023-07-24T02:33:49;1.23;;;0.97;;
6259;SDS011;3163;51.516;4.000;2023-07-24T02:36:15;1.37;;;0.73;;
6259;SDS011;3163;51.516;4.000;2023-07-24T02:38:40;1.00;;;0.93;;
6259;SDS011;3163;51.516;4.000;2023-07-24T02:41:06;1.00;;;0.80;;
6259;SDS011;3163;51.516;4.000;2023-07-24T02:43:31;1.10;;;1.00;;
6259;SDS011;3163;51.516;4.000;2023-07-24T02:46:00;1.40;;;1.27;;
6259;SDS011;3163;51.516;4.000;2023-07-24T02:48:27;1.60;;;1.23;;
6259;SDS011;3163;51.516;4.000;2023-07-24T02:50:53;0.93;;;0.93;;
6259;SDS011;3163;51.516;4.000;2023-07-24T02:53:18;1.17;;;1.13;;
6259;SDS011;3163;51.516;4.000;2023-07-24T02:55:44;1.20;;;1.10;;
6259;SDS011;3163;51.516;4.000;2023-07-24T02:58:11;1.17;;;1.03;;
6259;SDS011;3163;51.516;4.000;2023-07-24T03:00:37;1.20;;;1.20;;
6259;SDS011;3163;51.516;4.000;2023-07-24T03:03:03;3.03;;;1.00;;
6259;SDS011;3163;51.516;4.000;2023-07-24T03:05:29;1.23;;;0.97;;
6259;SDS011;3163;51.516;4.000;2023-07-24T03:07:55;1.60;;;0.93;;
6259;SDS011;3163;51.516;4.000;2023-07-24T03:10:22;1.37;;;1.20;;
6259;SDS011;3163;51.516;4.000;2023-07-24T03:12:48;1.00;;;1.00;;
6259;SDS011;3163;51.516;4.000;2023-07-24T03:15:13;1.10;;;1.00;;
6259;SDS011;3163;51.516;4.000;2023-07-24T03:17:39;2.10;;;1.63;;
6259;SDS011;3163;51.516;4.000;2023-07-24T03:20:14;1.50;;;1.40;;
6259;SDS011;3163;51.516;4.000;2023-07-24T03:22:42;1.27;;;1.17;;
6259;SDS011;3163;51.516;4.000;2023-07-24T03:25:08;1.33;;;1.23;;
6259;SDS011;3163;51.516;4.000;2023-07-24T03:27:34;1.70;;;1.60;;
6259;SDS011;3163;51.516;4.000;2023-07-24T03:30:00;1.50;;;1.20;;
6259;SDS011;3163;51.516;4.000;2023-07-24T03:32:26;1.50;;;1.40;;
6259;SDS011;3163;51.516;4.000;2023-07-24T03:34:51;1.23;;;1.17;;
6259;SDS011;3163;51.516;4.000;2023-07-24T03:37:17;1.27;;;1.17;;
6259;SDS011;3163;51.516;4.000;2023-07-24T03:39:43;2.57;;;1.30;;
6259;SDS011;3163;51.516;4.000;2023-07-24T03:42:11;2.07;;;1.40;;
6259;SDS011;3163;51.516;4.000;2023-07-24T03:44:50;1.50;;;1.40;;
6259;SDS011;3163;51.516;4.000;2023-07-24T03:47:15;1.97;;;1.50;;
6259;SDS011;3163;51.516;4.000;2023-07-24T03:49:41;2.70;;;1.50;;
6259;SDS011;3163;51.516;4.000;2023-07-24T03:52:07;1.53;;;1.27;;
6259;SDS011;3163;51.516;4.000;2023-07-24T03:54:32;1.63;;;1.53;;
6259;SDS011;3163;51.516;4.000;2023-07-24T03:56:58;2.30;;;1.30;;
6259;SDS011;3163;51.516;4.000;2023-07-24T03:59:23;1.60;;;1.50;;
6259;SDS011;3163;51.516;4.000;2023-07-24T04:01:49;1.30;;;1.20;;
6259;SDS011;3163;51.516;4.000;2023-07-24T04:04:14;1.40;;;1.30;;
6259;SDS011;3163;51.516;4.000;2023-07-24T04:06:40;1.80;;;1.70;;
6259;SDS011;3163;51.516;4.000;2023-07-24T04:09:06;3.67;;;1.70;;
6259;SDS011;3163;51.516;4.000;2023-07-24T04:11:31;1.50;;;1.40;;
6259;SDS011;3163;51.516;4.000;2023-07-24T04:13:57;1.47;;;1.37;;
6259;SDS011;3163;51.516;4.000;2023-07-24T04:16:23;1.57;;;1.20;;
6259;SDS011;3163;51.516;4.000;2023-07-24T04:18:48;1.87;;;1.40;;
6259;SDS011;3163;51.516;4.000;2023-07-24T04:21:14;1.50;;;1.40;;
6259;SDS011;3163;51.516;4.000;2023-07-24T04:23:39;1.53;;;1.43;;
6259;SDS011;3163;51.516;4.000;2023-07-24T04:26:05;1.67;;;1.57;;
6259;SDS011;3163;51.516;4.000;2023-07-24T04:28:31;1.53;;;1.43;;
6259;SDS011;3163;51.516;4.000;2023-07-24T04:30:59;1.57;;;1.47;;
6259;SDS011;3163;51.516;4.000;2023-07-24T04:33:26;1.30;;;1.20;;
6259;SDS011;3163;51.516;4.000;2023-07-24T04:35:52;1.30;;;1.30;;
6259;SDS011;3163;51.516;4.000;2023-07-24T04:38:21;1.57;;;1.30;;
6259;SDS011;3163;51.516;4.000;2023-07-24T04:40:46;1.52;;;1.42;;
6259;SDS011;3163;51.516;4.000;2023-07-24T04:43:12;1.67;;;1.58;;
6259;SDS011;3163;51.516;4.000;2023-07-24T04:45:38;3.37;;;1.60;;
6259;SDS011;3163;51.516;4.000;2023-07-24T04:48:03;1.60;;;1.50;;
6259;SDS011;3163;51.516;4.000;2023-07-24T04:50:30;2.20;;;1.70;;
6259;SDS011;3163;51.516;4.000;2023-07-24T04:52:55;1.67;;;1.57;;
6259;SDS011;3163;51.516;4.000;2023-07-24T04:55:21;1.90;;;1.73;;
6259;SDS011;3163;51.516;4.000;2023-07-24T04:57:47;2.13;;;1.67;;
6259;SDS011;3163;51.516;4.000;2023-07-24T05:00:13;2.07;;;1.87;;
6259;SDS011;3163;51.516;4.000;2023-07-24T05:02:39;2.22;;;1.60;;
6259;SDS011;3163;51.516;4.000;2023-07-24T05:05:05;3.10;;;1.75;;
6259;SDS011;3163;51.516;4.000;2023-07-24T05:07:31;3.07;;;1.60;;
6259;SDS011;3163;51.516;4.000;2023-07-24T05:09:57;1.90;;;1.80;;
6259;SDS011;3163;51.516;4.000;2023-07-24T05:12:23;1.92;;;1.80;;
6259;SDS011;3163;51.516;4.000;2023-07-24T05:14:48;1.87;;;1.70;;
6259;SDS011;3163;51.516;4.000;2023-07-24T05:17:14;1.90;;;1.70;;
6259;SDS011;3163;51.516;4.000;2023-07-24T05:19:39;2.03;;;1.83;;
6259;SDS011;3163;51.516;4.000;2023-07-24T05:22:05;1.92;;;1.83;;
6259;SDS011;3163;51.516;4.000;2023-07-24T05:24:31;1.67;;;1.58;;
6259;SDS011;3163;51.516;4.000;2023-07-24T05:26:56;1.90;;;1.80;;
6259;SDS011;3163;51.516;4.000;2023-07-24T05:29:22;1.42;;;1.33;;
6259;SDS011;3163;51.516;4.000;2023-07-24T05:31:48;2.25;;;1.90;;
6259;SDS011;3163;51.516;4.000;2023-07-24T05:34:13;1.83;;;1.65;;
6259;SDS011;3163;51.516;4.000;2023-07-24T05:36:40;2.08;;;1.55;;
6259;SDS011;3163;51.516;4.000;2023-07-24T05:39:06;3.25;;;2.13;;
6259;SDS011;3163;51.516;4.000;2023-07-24T05:41:32;1.67;;;1.58;;
6259;SDS011;3163;51.516;4.000;2023-07-24T05:43:57;3.80;;;1.90;;
6259;SDS011;3163;51.516;4.000;2023-07-24T05:46:23;2.85;;;1.88;;
6259;SDS011;3163;51.516;4.000;2023-07-24T05:48:48;2.60;;;1.75;;
6259;SDS011;3163;51.516;4.000;2023-07-24T05:51:14;1.90;;;1.80;;
6259;SDS011;3163;51.516;4.000;2023-07-24T05:53:40;3.05;;;2.10;;
6259;SDS011;3163;51.516;4.000;2023-07-24T05:56:05;1.83;;;1.73;;
6259;SDS011;3163;51.516;4.000;2023-07-24T05:58:31;1.83;;;1.50;;
6259;SDS011;3163;51.516;4.000;2023-07-24T06:00:57;2.55;;;1.65;;
6259;SDS011;3163;51.516;4.000;2023-07-24T06:03:23;1.77;;;1.60;;
6259;SDS011;3163;51.516;4.000;2023-07-24T06:05:55;1.58;;;1.48;;
6259;SDS011;3163;51.516;4.000;2023-07-24T06:08:21;1.58;;;1.40;;
6259;SDS011;3163;51.516;4.000;2023-07-24T06:10:48;2.25;;;2.05;;
6259;SDS011;3163;51.516;4.000;2023-07-24T06:13:14;1.58;;;1.48;;
6259;SDS011;3163;51.516;4.000;2023-07-24T06:15:43;1.90;;;1.73;;
6259;SDS011;3163;51.516;4.000;2023-07-24T06:18:09;2.00;;;1.80;;
6259;SDS011;3163;51.516;4.000;2023-07-24T06:20:35;1.83;;;1.70;;
6259;SDS011;3163;51.516;4.000;2023-07-24T06:23:01;1.70;;;1.60;;
6259;SDS011;3163;51.516;4.000;2023-07-24T06:25:29;2.38;;;1.55;;
6259;SDS011;3163;51.516;4.000;2023-07-24T06:27:57;1.38;;;1.27;;
6259;SDS011;3163;51.516;4.000;2023-07-24T06:30:23;2.17;;;1.92;;
6259;SDS011;3163;51.516;4.000;2023-07-24T06:32:49;2.53;;;1.50;;
6259;SDS011;3163;51.516;4.000;2023-07-24T06:35:15;1.83;;;1.73;;
6259;SDS011;3163;51.516;4.000;2023-07-24T06:37:40;2.25;;;1.60;;
6259;SDS011;3163;51.516;4.000;2023-07-24T06:40:06;1.60;;;1.50;;
6259;SDS011;3163;51.516;4.000;2023-07-24T06:42:33;1.67;;;1.58;;
6259;SDS011;3163;51.516;4.000;2023-07-24T06:44:59;2.05;;;1.48;;
6259;SDS011;3163;51.516;4.000;2023-07-24T06:47:24;2.55;;;1.52;;
6259;SDS011;3163;51.516;4.000;2023-07-24T06:49:50;2.30;;;1.42;;
6259;SDS011;3163;51.516;4.000;2023-07-24T06:52:16;2.55;;;1.50;;
6259;SDS011;3163;51.516;4.000;2023-07-24T06:54:41;3.53;;;1.40;;
6259;SDS011;3163;51.516;4.000;2023-07-24T06:57:07;3.28;;;1.45;;
6259;SDS011;3163;51.516;4.000;2023-07-24T06:59:33;1.60;;;1.45;;
6259;SDS011;3163;51.516;4.000;2023-07-24T07:01:58;1.63;;;1.50;;
6259;SDS011;3163;51.516;4.000;2023-07-24T07:04:24;3.20;;;1.45;;
6259;SDS011;3163;51.516;4.000;2023-07-24T07:06:50;2.75;;;1.42;;
6259;SDS011;3163;51.516;4.000;2023-07-24T07:09:15;1.13;;;1.08;;
6259;SDS011;3163;51.516;4.000;2023-07-24T07:11:41;3.05;;;1.63;;
6259;SDS011;3163;51.516;4.000;2023-07-24T07:14:08;2.17;;;1.67;;
6259;SDS011;3163;51.516;4.000;2023-07-24T07:16:34;2.63;;;1.92;;
6259;SDS011;3163;51.516;4.000;2023-07-24T07:18:59;2.13;;;1.65;;
6259;SDS011;3163;51.516;4.000;2023-07-24T07:21:25;2.38;;;1.85;;
6259;SDS011;3163;51.516;4.000;2023-07-24T07:23:51;1.55;;;1.40;;
6259;SDS011;3163;51.516;4.000;2023-07-24T07:26:16;1.23;;;1.10;;
6259;SDS011;3163;51.516;4.000;2023-07-24T07:28:42;2.45;;;1.42;;
6259;SDS011;3163;51.516;4.000;2023-07-24T07:31:09;2.15;;;1.73;;
6259;SDS011;3163;51.516;4.000;2023-07-24T07:33:35;2.58;;;1.77;;
6259;SDS011;3163;51.516;4.000;2023-07-24T07:36:01;3.33;;;1.58;;
6259;SDS011;3163;51.516;4.000;2023-07-24T07:38:28;3.25;;;1.80;;
6259;SDS011;3163;51.516;4.000;2023-07-24T07:40:54;2.38;;;2.17;;
6259;SDS011;3163;51.516;4.000;2023-07-24T07:43:20;1.63;;;1.45;;
6259;SDS011;3163;51.516;4.000;2023-07-24T07:45:46;1.77;;;1.60;;
6259;SDS011;3163;51.516;4.000;2023-07-24T07:48:12;2.65;;;1.80;;
6259;SDS011;3163;51.516;4.000;2023-07-24T07:50:38;2.22;;;1.90;;
6259;SDS011;3163;51.516;4.000;2023-07-24T07:53:03;2.28;;;1.92;;
6259;SDS011;3163;51.516;4.000;2023-07-24T07:55:29;3.30;;;1.80;;
6259;SDS011;3163;51.516;4.000;2023-07-24T07:57:54;5.30;;;1.48;;
6259;SDS011;3163;51.516;4.000;2023-07-24T08:00:20;1.70;;;1.38;;
6259;SDS011;3163;51.516;4.000;2023-07-24T08:02:46;2.45;;;1.80;;
6259;SDS011;3163;51.516;4.000;2023-07-24T08:05:12;1.52;;;1.35;;
6259;SDS011;3163;51.516;4.000;2023-07-24T08:07:37;3.97;;;1.92;;
6259;SDS011;3163;51.516;4.000;2023-07-24T08:10:03;2.25;;;1.73;;
6259;SDS011;3163;51.516;4.000;2023-07-24T08:12:29;2.53;;;1.65;;
6259;SDS011;3163;51.516;4.000;2023-07-24T08:14:55;2.78;;;1.77;;
6259;SDS011;3163;51.516;4.000;2023-07-24T08:17:21;1.55;;;1.45;;
6259;SDS011;3163;51.516;4.000;2023-07-24T08:19:47;1.52;;;1.40;;
6259;SDS011;3163;51.516;4.000;2023-07-24T08:22:12;1.50;;;1.23;;
6259;SDS011;3163;51.516;4.000;2023-07-24T08:24:38;2.20;;;1.48;;
6259;SDS011;3163;51.516;4.000;2023-07-24T08:27:04;2.13;;;1.25;;
6259;SDS011;3163;51.516;4.000;2023-07-24T08:29:29;1.83;;;1.30;;
6259;SDS011;3163;51.516;4.000;2023-07-24T08:31:55;2.75;;;1.60;;
6259;SDS011;3163;51.516;4.000;2023-07-24T08:34:21;2.30;;;1.60;;
6259;SDS011;3163;51.516;4.000;2023-07-24T08:36:47;1.50;;;1.33;;
6259;SDS011;3163;51.516;4.000;2023-07-24T08:39:12;2.35;;;1.42;;
6259;SDS011;3163;51.516;4.000;2023-07-24T08:41:38;1.42;;;1.33;;
6259;SDS011;3163;51.516;4.000;2023-07-24T08:44:04;1.52;;;1.33;;
6259;SDS011;3163;51.516;4.000;2023-07-24T08:46:35;1.55;;;1.45;;
6259;SDS011;3163;51.516;4.000;2023-07-24T08:49:02;2.00;;;1.70;;
6259;SDS011;3163;51.516;4.000;2023-07-24T08:51:28;2.95;;;1.67;;
6259;SDS011;3163;51.516;4.000;2023-07-24T08:53:56;3.85;;;2.20;;
6259;SDS011;3163;51.516;4.000;2023-07-24T08:56:22;1.52;;;1.30;;
6259;SDS011;3163;51.516;4.000;2023-07-24T08:58:47;2.30;;;1.80;;
6259;SDS011;3163;51.516;4.000;2023-07-24T09:01:13;1.52;;;1.40;;
6259;SDS011;3163;51.516;4.000;2023-07-24T09:03:39;1.73;;;1.55;;
6259;SDS011;3163;51.516;4.000;2023-07-24T09:06:05;2.38;;;1.55;;
6259;SDS011;3163;51.516;4.000;2023-07-24T09:08:38;1.50;;;1.30;;
6259;SDS011;3163;51.516;4.000;2023-07-24T09:11:05;1.50;;;1.40;;
6259;SDS011;3163;51.516;4.000;2023-07-24T09:13:32;1.10;;;1.10;;
6259;SDS011;3163;51.516;4.000;2023-07-24T09:16:03;1.75;;;1.65;;
6259;SDS011;3163;51.516;4.000;2023-07-24T09:18:42;1.95;;;1.30;;
6259;SDS011;3163;51.516;4.000;2023-07-24T09:21:11;1.33;;;1.23;;
6259;SDS011;3163;51.516;4.000;2023-07-24T09:23:39;1.60;;;1.50;;
6259;SDS011;3163;51.516;4.000;2023-07-24T09:26:06;1.85;;;1.52;;
6259;SDS011;3163;51.516;4.000;2023-07-24T09:28:33;2.17;;;1.67;;
6259;SDS011;3163;51.516;4.000;2023-07-24T09:31:00;1.85;;;1.75;;
6259;SDS011;3163;51.516;4.000;2023-07-24T09:36:01;2.57;;;1.90;;
6259;SDS011;3163;51.516;4.000;2023-07-24T09:38:33;1.77;;;1.50;;
6259;SDS011;3163;51.516;4.000;2023-07-24T09:41:00;3.35;;;1.58;;
6259;SDS011;3163;51.516;4.000;2023-07-24T09:43:27;1.50;;;1.40;;
6259;SDS011;3163;51.516;4.000;2023-07-24T09:45:53;5.85;;;2.33;;
6259;SDS011;3163;51.516;4.000;2023-07-24T09:48:20;3.83;;;1.65;;
6259;SDS011;3163;51.516;4.000;2023-07-24T09:50:48;2.13;;;1.92;;
6259;SDS011;3163;51.516;4.000;2023-07-24T09:56:06;2.80;;;1.98;;
6259;SDS011;3163;51.516;4.000;2023-07-24T09:58:32;2.50;;;1.90;;
6259;SDS011;3163;51.516;4.000;2023-07-24T10:01:00;3.30;;;1.65;;
6259;SDS011;3163;51.516;4.000;2023-07-24T10:03:28;1.63;;;1.50;;
6259;SDS011;3163;51.516;4.000;2023-07-24T10:05:55;2.78;;;2.00;;
6259;SDS011;3163;51.516;4.000;2023-07-24T10:08:21;2.15;;;1.52;;
6259;SDS011;3163;51.516;4.000;2023-07-24T10:10:47;3.50;;;1.98;;
6259;SDS011;3163;51.516;4.000;2023-07-24T10:13:16;2.17;;;1.60;;
6259;SDS011;3163;51.516;4.000;2023-07-24T10:15:43;2.13;;;1.85;;
6259;SDS011;3163;51.516;4.000;2023-07-24T10:18:12;2.67;;;1.65;;
6259;SDS011;3163;51.516;4.000;2023-07-24T10:20:41;1.80;;;1.70;;
6259;SDS011;3163;51.516;4.000;2023-07-24T10:23:08;2.60;;;2.10;;
6259;SDS011;3163;51.516;4.000;2023-07-24T10:25:35;5.15;;;2.05;;
6259;SDS011;3163;51.516;4.000;2023-07-24T10:30:33;2.10;;;1.70;;
6259;SDS011;3163;51.516;4.000;2023-07-24T10:33:08;2.20;;;1.77;;
6259;SDS011;3163;51.516;4.000;2023-07-24T10:38:03;1.83;;;1.65;;
6259;SDS011;3163;51.516;4.000;2023-07-24T10:40:29;1.92;;;1.60;;
6259;SDS011;3163;51.516;4.000;2023-07-24T10:43:17;3.30;;;1.73;;
6259;SDS011;3163;51.516;4.000;2023-07-24T10:48:15;2.13;;;1.90;;
6259;SDS011;3163;51.516;4.000;2023-07-24T10:50:43;1.92;;;1.77;;
6259;SDS011;3163;51.516;4.000;2023-07-24T10:53:10;1.70;;;1.60;;
6259;SDS011;3163;51.516;4.000;2023-07-24T10:55:38;1.90;;;1.80;;
6259;SDS011;3163;51.516;4.000;2023-07-24T10:58:04;1.80;;;1.70;;
6259;SDS011;3163;51.516;4.000;2023-07-24T11:00:30;2.85;;;1.80;;
6259;SDS011;3163;51.516;4.000;2023-07-24T11:02:56;1.70;;;1.60;;
6259;SDS011;3163;51.516;4.000;2023-07-24T11:05:22;1.88;;;1.73;;
6259;SDS011;3163;51.516;4.000;2023-07-24T11:07:48;3.35;;;1.50;;
6259;SDS011;3163;51.516;4.000;2023-07-24T11:10:14;2.37;;;2.00;;
6259;SDS011;3163;51.516;4.000;2023-07-24T11:12:41;1.95;;;1.65;;
6259;SDS011;3163;51.516;4.000;2023-07-24T11:15:06;1.70;;;1.60;;
6259;SDS011;3163;51.516;4.000;2023-07-24T11:17:33;2.03;;;1.80;;
6259;SDS011;3163;51.516;4.000;2023-07-24T11:20:11;1.73;;;1.60;;
6259;SDS011;3163;51.516;4.000;2023-07-24T11:22:39;2.33;;;1.48;;
6259;SDS011;3163;51.516;4.000;2023-07-24T11:25:06;1.75;;;1.65;;
6259;SDS011;3163;51.516;4.000;2023-07-24T11:27:32;1.60;;;1.50;;
6259;SDS011;3163;51.516;4.000;2023-07-24T11:29:58;1.75;;;1.60;;
6259;SDS011;3163;51.516;4.000;2023-07-24T11:32:24;1.45;;;1.25;;
6259;SDS011;3163;51.516;4.000;2023-07-24T11:34:50;2.45;;;1.35;;
6259;SDS011;3163;51.516;4.000;2023-07-24T11:37:17;1.83;;;1.50;;
6259;SDS011;3163;51.516;4.000;2023-07-24T11:39:44;1.65;;;1.48;;
6259;SDS011;3163;51.516;4.000;2023-07-24T11:42:26;1.63;;;1.25;;
6259;SDS011;3163;51.516;4.000;2023-07-24T11:44:53;1.02;;;1.02;;
6259;SDS011;3163;51.516;4.000;2023-07-24T11:47:18;1.13;;;1.08;;
6259;SDS011;3163;51.516;4.000;2023-07-24T11:49:44;1.25;;;1.13;;
6259;SDS011;3163;51.516;4.000;2023-07-24T11:52:20;1.67;;;1.30;;
6259;SDS011;3163;51.516;4.000;2023-07-24T11:54:46;1.38;;;1.27;;
6259;SDS011;3163;51.516;4.000;2023-07-24T11:57:25;3.00;;;1.55;;
6259;SDS011;3163;51.516;4.000;2023-07-24T11:59:52;0.95;;;0.95;;
6259;SDS011;3163;51.516;4.000;2023-07-24T12:02:18;2.10;;;1.17;;
6259;SDS011;3163;51.516;4.000;2023-07-24T12:04:45;1.98;;;1.15;;
6259;SDS011;3163;51.516;4.000;2023-07-24T12:07:10;2.40;;;1.53;;
6259;SDS011;3163;51.516;4.000;2023-07-24T12:09:36;1.30;;;1.20;;
6259;SDS011;3163;51.516;4.000;2023-07-24T12:12:03;1.38;;;1.17;;
6259;SDS011;3163;51.516;4.000;2023-07-24T12:14:31;1.17;;;1.02;;
6259;SDS011;3163;51.516;4.000;2023-07-24T12:17:03;1.67;;;1.10;;
6259;SDS011;3163;51.516;4.000;2023-07-24T12:19:34;1.20;;;1.10;;
6259;SDS011;3163;51.516;4.000;2023-07-24T12:22:01;1.80;;;0.93;;
6259;SDS011;3163;51.516;4.000;2023-07-24T12:24:29;1.60;;;1.17;;
6259;SDS011;3163;51.516;4.000;2023-07-24T12:26:54;1.00;;;1.00;;
6259;SDS011;3163;51.516;4.000;2023-07-24T12:29:20;1.40;;;1.00;;
6259;SDS011;3163;51.516;4.000;2023-07-24T12:31:45;1.20;;;1.10;;
6259;SDS011;3163;51.516;4.000;2023-07-24T12:34:11;1.30;;;1.20;;
6259;SDS011;3163;51.516;4.000;2023-07-24T12:36:37;1.30;;;1.00;;
6259;SDS011;3163;51.516;4.000;2023-07-24T12:39:02;1.38;;;1.00;;
6259;SDS011;3163;51.516;4.000;2023-07-24T12:41:28;1.40;;;1.30;;
6259;SDS011;3163;51.516;4.000;2023-07-24T12:43:53;2.47;;;1.30;;
6259;SDS011;3163;51.516;4.000;2023-07-24T12:46:19;2.10;;;1.20;;
6259;SDS011;3163;51.516;4.000;2023-07-24T12:48:45;1.30;;;1.20;;
6259;SDS011;3163;51.516;4.000;2023-07-24T12:51:10;1.85;;;1.42;;
6259;SDS011;3163;51.516;4.000;2023-07-24T12:53:36;1.60;;;1.17;;
6259;SDS011;3163;51.516;4.000;2023-07-24T12:56:01;1.20;;;1.10;;
6259;SDS011;3163;51.516;4.000;2023-07-24T12:58:27;1.08;;;1.00;;
6259;SDS011;3163;51.516;4.000;2023-07-24T13:00:53;0.85;;;0.85;;
6259;SDS011;3163;51.516;4.000;2023-07-24T13:03:18;2.03;;;1.23;;
6259;SDS011;3163;51.516;4.000;2023-07-24T13:05:44;1.73;;;1.33;;
6259;SDS011;3163;51.516;4.000;2023-07-24T13:08:10;1.23;;;1.13;;
6259;SDS011;3163;51.516;4.000;2023-07-24T13:10:36;1.17;;;1.17;;
6259;SDS011;3163;51.516;4.000;2023-07-24T13:13:01;1.27;;;1.00;;
6259;SDS011;3163;51.516;4.000;2023-07-24T13:15:27;1.48;;;1.15;;
6259;SDS011;3163;51.516;4.000;2023-07-24T13:17:54;1.10;;;1.08;;
6259;SDS011;3163;51.516;4.000;2023-07-24T13:20:20;1.05;;;0.98;;
6259;SDS011;3163;51.516;4.000;2023-07-24T13:22:45;1.27;;;1.20;;
6259;SDS011;3163;51.516;4.000;2023-07-24T13:25:13;1.10;;;1.00;;
6259;SDS011;3163;51.516;4.000;2023-07-24T13:27:39;1.10;;;1.00;;
6259;SDS011;3163;51.516;4.000;2023-07-24T13:30:05;0.93;;;0.90;;
6259;SDS011;3163;51.516;4.000;2023-07-24T13:32:30;1.17;;;1.17;;
6259;SDS011;3163;51.516;4.000;2023-07-24T13:34:56;1.23;;;1.00;;
6259;SDS011;3163;51.516;4.000;2023-07-24T13:37:22;0.60;;;0.60;;
6259;SDS011;3163;51.516;4.000;2023-07-24T13:39:49;1.58;;;1.48;;
6259;SDS011;3163;51.516;4.000;2023-07-24T13:42:15;1.45;;;1.27;;
6259;SDS011;3163;51.516;4.000;2023-07-24T13:44:41;1.38;;;1.10;;
6259;SDS011;3163;51.516;4.000;2023-07-24T13:47:07;1.38;;;1.10;;
6259;SDS011;3163;51.516;4.000;2023-07-24T13:49:32;1.75;;;1.27;;
6259;SDS011;3163;51.516;4.000;2023-07-24T13:51:58;0.80;;;0.80;;
6259;SDS011;3163;51.516;4.000;2023-07-24T13:54:24;1.48;;;1.38;;
6259;SDS011;3163;51.516;4.000;2023-07-24T13:56:49;2.40;;;1.10;;
6259;SDS011;3163;51.516;4.000;2023-07-24T13:59:15;1.17;;;1.05;;
6259;SDS011;3163;51.516;4.000;2023-07-24T14:01:40;0.32;;;0.32;;
6259;SDS011;3163;51.516;4.000;2023-07-24T14:04:06;4.10;;;0.47;;
6259;SDS011;3163;51.516;4.000;2023-07-24T14:06:31;3.22;;;0.80;;
6259;SDS011;3163;51.516;4.000;2023-07-24T14:08:57;1.30;;;0.43;;
6259;SDS011;3163;51.516;4.000;2023-07-24T14:11:23;0.85;;;0.85;;
6259;SDS011;3163;51.516;4.000;2023-07-24T14:13:50;1.40;;;0.65;;
6259;SDS011;3163;51.516;4.000;2023-07-24T14:16:15;0.40;;;0.40;;
6259;SDS011;3163;51.516;4.000;2023-07-24T14:18:41;1.40;;;1.25;;
6259;SDS011;3163;51.516;4.000;2023-07-24T14:21:06;0.22;;;0.22;;
6259;SDS011;3163;51.516;4.000;2023-07-24T14:23:32;0.28;;;0.28;;
6259;SDS011;3163;51.516;4.000;2023-07-24T14:25:58;0.32;;;0.30;;
6259;SDS011;3163;51.516;4.000;2023-07-24T14:28:23;1.35;;;0.30;;
6259;SDS011;3163;51.516;4.000;2023-07-24T14:30:49;2.05;;;1.02;;
6259;SDS011;3163;51.516;4.000;2023-07-24T14:33:14;2.30;;;0.50;;
6259;SDS011;3163;51.516;4.000;2023-07-24T14:35:40;0.30;;;0.30;;
6259;SDS011;3163;51.516;4.000;2023-07-24T14:38:06;1.25;;;0.60;;
6259;SDS011;3163;51.516;4.000;2023-07-24T14:40:31;0.32;;;0.20;;
6259;SDS011;3163;51.516;4.000;2023-07-24T14:42:57;2.13;;;0.68;;
6259;SDS011;3163;51.516;4.000;2023-07-24T14:45:23;2.00;;;0.50;;
6259;SDS011;3163;51.516;4.000;2023-07-24T14:47:49;0.63;;;0.35;;
6259;SDS011;3163;51.516;4.000;2023-07-24T14:50:15;0.68;;;0.43;;
6259;SDS011;3163;51.516;4.000;2023-07-24T14:52:41;0.25;;;0.25;;
6259;SDS011;3163;51.516;4.000;2023-07-24T14:55:08;0.50;;;0.50;;
6259;SDS011;3163;51.516;4.000;2023-07-24T14:57:35;0.57;;;0.57;;
6259;SDS011;3163;51.516;4.000;2023-07-24T15:00:00;0.40;;;0.30;;
6259;SDS011;3163;51.516;4.000;2023-07-24T15:02:26;0.77;;;0.30;;
6259;SDS011;3163;51.516;4.000;2023-07-24T15:04:52;0.38;;;0.30;;
6259;SDS011;3163;51.516;4.000;2023-07-24T15:07:17;0.40;;;0.17;;
6259;SDS011;3163;51.516;4.000;2023-07-24T15:09:43;0.30;;;0.28;;
6259;SDS011;3163;51.516;4.000;2023-07-24T15:12:09;0.22;;;0.22;;
6259;SDS011;3163;51.516;4.000;2023-07-24T15:14:34;0.10;;;0.10;;
6259;SDS011;3163;51.516;4.000;2023-07-24T15:17:00;0.63;;;0.20;;
6259;SDS011;3163;51.516;4.000;2023-07-24T15:19:26;0.25;;;0.25;;
6259;SDS011;3163;51.516;4.000;2023-07-24T15:21:51;0.98;;;0.43;;
6259;SDS011;3163;51.516;4.000;2023-07-24T15:24:17;0.35;;;0.30;;
6259;SDS011;3163;51.516;4.000;2023-07-24T15:26:46;0.60;;;0.47;;
6259;SDS011;3163;51.516;4.000;2023-07-24T15:29:12;1.35;;;0.52;;
6259;SDS011;3163;51.516;4.000;2023-07-24T15:31:39;0.75;;;0.20;;